James Reserve, California Weather observations

Data are for 10 minute period ending at time listed.
 Day   Time   Solar   Ave.   Ave.  Ave.  Vector  Max.   Baro.   Total    
  of    of     Rad.   Air    Rel.  Wind   Wind   Wind  Press.  Precip.   
Year   Day            Temp.  Hum.  Speed  Dir.   Gust                    
2016   (PST)  Kw/m2    F      %     mph   deg.    mph    mb.     in.     
-------------------------------------------------------------------------
 121   11:00   0.11   39.5    98    0.6   270     1.5   829.7    0.00 
 121   11:10   0.11   39.4    98    0.4    72     1.3   829.6    0.00 
 121   11:20   0.13   39.8    98    0.6   149     1.9   829.6    0.00 
 121   11:30   0.13   39.5    98    0.6   157     1.4   829.5    0.00 
 121   11:40   0.28   39.9    98    0.5   105     1.3   829.5    0.00 
 121   11:50   0.36   41.1    98    0.7    34     1.9   829.5    0.00 
 121   12:00   0.29   41.7    97    0.7    85     1.6   829.5    0.00 
 121   12:10   0.19   42.1    95    0.8   246     2.0   829.5    0.00 
 121   12:20   0.12   41.2    95    0.8   183     1.9   829.6    0.00 
 121   12:30   0.11   41.1    95    0.5   244     1.2   829.6    0.00 
 121   12:40   0.12   41.4    95    0.5   179     1.8   829.7    0.00 
 121   12:50   0.10   41.2    94    0.5   137     1.3   829.8    0.00 
 121   13:00   0.22   42.0    94    0.4   124     1.2   829.8    0.00 
 121   13:10   0.18   42.1    93    0.6   256     1.7   829.8    0.00 
 121   13:20   0.10   42.6    91    0.3   322     0.7   829.8    0.00 
 121   13:30   0.05   42.9    89    0.5   216     1.2   829.7    0.00 
 121   13:40   0.04   42.7    89    0.4   230     0.9   829.8    0.00 
 121   13:50   0.07   42.8    90    0.4    50     1.0   829.7    0.00 
 121   14:00   0.04   42.6    90    0.4   203     1.3   829.6    0.00 
 121   14:10   0.05   42.6    90    0.3   235     0.7   829.6    0.00 
 121   14:20   0.09   43.0    90    0.4   116     0.8   829.7    0.00 
 121   14:30   0.06   43.3    90    0.5   176     1.1   829.7    0.00 
 121   14:40   0.04   43.5    90    0.6   208     1.3   829.6    0.00 
 121   14:50   0.04   43.0    91    0.8   138     1.9   829.7    0.00 
 121   15:00   0.05   42.6    94    0.6   127     1.7   829.7    0.00 
 121   15:10   0.07   42.7    95    0.5   223     1.0   829.6    0.00 
 121   15:20   0.07   42.9    96    0.4   159     0.9   829.6    0.00 
 121   15:30   0.04   42.9    96    0.6   222     1.2   829.6    0.00 
 121   15:40   0.04   42.7    96    0.6   138     1.4   829.8    0.00 
 121   15:50   0.06   42.7    96    0.4   121     1.1   829.8    0.00 
 121   16:00   0.04   43.0    96    0.7   144     1.3   829.9    0.00 
 121   16:10   0.02   42.9    96    0.6    80     1.4   829.9    0.00 
 121   16:20   0.02   43.0    96    0.4    52     0.9   829.9    0.00 
 121   16:30   0.02   42.8    96    0.5    47     1.2   830.0    0.00 
 121   16:40   0.02   42.8    96    0.6    68     1.6   830.0    0.00 
 121   16:50   0.03   43.0    96    0.6    38     1.6   830.0    0.00 
 121   17:00   0.03   43.0    96    0.4   117     0.8   830.1    0.00 
 121   17:10   0.02   43.2    96    0.6   161     1.4   830.1    0.00 
 121   17:20   0.03   43.4    96    0.6   172     1.2   830.2    0.00 
 121   17:30   0.02   43.4    95    0.4   176     1.2   830.2    0.00 
 121   17:40   0.01   43.4    95    0.4   168     1.0   830.2    0.00 
 121   17:50   0.01   43.4    96    0.5   139     0.9   830.3    0.00 
 121   18:00   0.01   43.4    96    0.5   154     1.4   830.4    0.00 
 121   18:10   0.01   43.4    96    0.5   128     1.2   830.4    0.00 
 121   18:20   0.00   43.3    96    0.4   111     1.7   830.6    0.00 
 121   18:30   0.00   43.3    96    0.4    65     0.9   830.7    0.00 
 121   18:40   0.00   43.3    96    0.4   110     1.3   830.6    0.00 
 121   18:50   0.00   43.2    96    0.7    74     1.4   830.7    0.00 
 121   19:00   0.00   43.2    96    0.5    63     1.8   830.7    0.00 
 121   19:10   0.00   43.2    96    0.7    54     1.7   830.7    0.00 
 121   19:20   0.00   43.2    96    0.8    67     2.2   830.8    0.00 
 121   19:30   0.00   43.2    96    0.5    35     2.3   830.9    0.00 
 121   19:40   0.00   43.1    97    0.3   356     0.5   831.0    0.00 
 121   19:50   0.00   43.0    97    0.4    22     0.9   831.0    0.00 
 121   20:00   0.00   42.8    97    0.5    81     1.0   831.1    0.00 
 121   20:10   0.00   42.8    98    0.3   315     0.8   831.2    0.00 
 121   20:20   0.00   42.8    98    0.3   345     0.6   831.4    0.00 
 121   20:30   0.00   42.8    98    0.3    37     0.7   831.5    0.00 
 121   20:40   0.00   42.8    98    0.5   222     1.0   831.5    0.00 
 121   20:50   0.00   42.7    98    0.4    97     0.9   831.6    0.00 
 121   21:00   0.00   42.6    98    0.4   264     1.0   831.7    0.00 
 121   21:10   0.00   42.2    98    0.4    41     0.9   831.6    0.00 
 121   21:20   0.00   42.0    98    0.2   169     0.6   831.7    0.00 
 121   21:30   0.00   41.8    98    0.3   206     0.7   831.7    0.00 
 121   21:40   0.00   41.8    98    0.3    45     0.6   831.6    0.00 
 121   21:50   0.00   41.6    98    0.4    39     0.9   831.6    0.00 
 121   22:00   0.00   41.2    98    0.3   356     0.8   831.5    0.00 
 121   22:10   0.00   41.0    98    0.3   359     0.8   831.4    0.00 
 121   22:20   0.00   40.8    98    0.5   264     1.0   831.4    0.00 
 121   22:30   0.00   40.8    98    0.5    25     1.2   831.4    0.00 
 121   22:40   0.00   40.9    98    0.4    71     0.8   831.5    0.00 
 121   22:50   0.00   40.8    98    0.4   161     0.9   831.6    0.00 
 121   23:00   0.00   40.7    98    0.4    13     1.2   831.7    0.00 
 121   23:10   0.00   40.5    98    0.4    23     0.8   831.7    0.00 
 121   23:20   0.00   40.3    98    0.4    14     1.1   831.7    0.00 
 121   23:30   0.00   40.2    98    0.5    30     1.2   831.7    0.00 
 121   23:40   0.00   40.2    98    0.4   350     1.5   831.6    0.00 
 121   23:50   0.00   39.8    98    0.3     9     0.9   831.7    0.00 
 122    0:00   0.00   39.2    99    0.2   344     0.8   831.7    0.00 
 122    0:10   0.00   38.7    99    0.3    24     0.8   831.6    0.00 
 122    0:20   0.00   38.4    99    0.4   355     0.9   831.5    0.00 
 122    0:30   0.00   37.9    99    0.4   346     1.3   831.5    0.00 
 122    0:40   0.00   37.4    99    0.3    19     0.7   831.5    0.00 
 122    0:50   0.00   36.9    99    0.4     8     0.7   831.4    0.00 
 122    1:00   0.00   36.5    99    0.3     1     0.8   831.4    0.00 
 122    1:10   0.00   36.2    99    0.3    23     0.9   831.3    0.00 
 122    1:20   0.00   35.9    99    0.3     5     0.8   831.3    0.00 
 122    1:30   0.00   35.8    99    0.4    17     0.8   831.3    0.00 
 122    1:40   0.00   35.6    99    0.5    27     1.0   831.3    0.00 
 122    1:50   0.00   35.5    99    0.4   344     0.9   831.2    0.00 
 122    2:00   0.00   35.5    99    0.5    26     1.0   831.2    0.00 
 122    2:10   0.00   35.5    99    0.4    23     1.1   831.2    0.00 
 122    2:20   0.00   35.5    99    0.4    32     1.4   831.3    0.00 
 122    2:30   0.00   35.5    99    0.6    68     1.4   831.2    0.00 
 122    2:40   0.00   35.4    99    0.6    72     1.4   831.2    0.00 
 122    2:50   0.00   35.3    99    0.5   235     1.3   831.2    0.00 
 122    3:00   0.00   35.2    99    0.8   201     2.4   831.2    0.00 
 122    3:10   0.00   35.3    99    0.8   202     2.1   831.3    0.00 
 122    3:20   0.00   35.5    99    0.6    64     1.9   831.3    0.00 
 122    3:30   0.00   35.7    99    0.5    35     1.6   831.4    0.00 
 122    3:40   0.00   36.2    99    0.9    63     3.0   831.4    0.00 
 122    3:50   0.00   36.6    99    0.7    37     1.7   831.4    0.00 
 122    4:00   0.00   36.7    99    0.5    33     0.9   831.5    0.00 
 122    4:10   0.00   36.6    99    0.8    72     2.1   831.5    0.00 
 122    4:20   0.00   36.7    99    0.8   217     2.9   831.5    0.00 
 122    4:30   0.00   36.7    99    0.7    59     1.3   831.7    0.00 
 122    4:40   0.00   37.0    99    0.7    70     1.9   831.8    0.00 
 122    4:50   0.00   36.9    99    0.6    42     1.5   831.8    0.00 
 122    5:00   0.00   37.3    99    0.7    33     2.0   831.9    0.00 
 122    5:10   0.00   37.9    99    0.9    33     2.1   832.0    0.00 
 122    5:20   0.01   38.5    99    0.8    14     2.0   832.1    0.00 
 122    5:30   0.01   39.2    99    0.7    34     2.3   832.3    0.00 
 122    5:40   0.02   40.4    99    0.9    32     2.4   832.4    0.00 
 122    5:50   0.02   40.9    98    0.7    55     1.6   832.6    0.00 
 122    6:00   0.02   40.8    98    0.7    54     1.7   832.7    0.00 
 122    6:10   0.03   40.6    98    0.9    23     2.8   832.9    0.00 
 122    6:20   0.02   40.9    98    0.8    10     2.4   832.9    0.00 
 122    6:30   0.03   40.9    98    0.5    39     1.0   832.9    0.00 
 122    6:40   0.03   40.4    98    0.7    48     1.9   832.9    0.00 
 122    6:50   0.04   40.7    97    0.8    71     1.7   833.0    0.00 
 122    7:00   0.04   41.4    96    0.8    23     1.7   832.9    0.00 
 122    7:10   0.08   43.1    91    0.8   162     1.9   832.9    0.00 
 122    7:20   0.05   44.2    84    0.4    67     0.9   832.9    0.00 
 122    7:30   0.04   43.2    90    0.6    62     1.7   833.0    0.00 
 122    7:40   0.07   45.9    78    0.7   204     2.6   833.0    0.00 
 122    7:50   0.12   48.1    73    0.8   231     2.8   833.1    0.00 
 122    8:00   0.40   50.0    62    1.1   236     2.4   833.2    0.00 
 122    8:10   0.56   50.9    63    0.9   198     2.7   833.3    0.00 
 122    8:20   0.70   51.5    58    0.9    90     3.5   833.4    0.00 
 122    8:30   0.68   51.9    57    0.9    74     2.6   833.4    0.00 
 122    8:40   0.77   52.0    57    0.9     9     2.3   833.5    0.00 
 122    8:50   0.80   53.8    55    0.9    20     2.2   833.5    0.00 
 122    9:00   0.84   53.4    52    1.0   141     2.3   833.7    0.00 
 122    9:10   0.88   53.8    50    1.1   196     2.6   833.7    0.00 
 122    9:20   0.91   52.7    65    1.3   206     4.0   833.8    0.00 
 122    9:30   0.94   53.3    61    1.1   191     2.7   833.9    0.00 
 122    9:40   1.03   53.3    69    1.3   216     3.4   834.0    0.00 
 122    9:50   0.97   53.7    68    0.9   209     2.5   834.0    0.00 
 122   10:00   0.68   52.6    72    1.3   209     3.4   833.9    0.00 
 122   10:10   0.82   53.0    70    0.9   191     2.3   833.9    0.00 
 122   10:20   0.94   52.6    72    1.0   222     2.3   834.0    0.00 
 122   10:30   1.04   53.0    67    0.9   160     2.7   834.1    0.00 
 122   10:40   1.10   52.9    68    1.2   192     3.1   834.2    0.00 
 122   10:50   1.13   53.5    64    0.9   169     2.4   834.2    0.00 

Return to James Reserve graphs page.


Western Regional Climate Center,wrcc@dri.edu